createdAt,value
2023-05-21T00:02:00.028Z,7.07
2023-05-21T00:04:29.544Z,3.90
2023-05-21T00:06:56.744Z,6.30
2023-05-21T00:09:23.880Z,5.25
2023-05-21T00:11:51.127Z,5.50
2023-05-21T00:14:18.353Z,4.03
2023-05-21T00:16:47.001Z,4.25
2023-05-21T00:19:14.348Z,4.68
2023-05-21T00:21:41.549Z,4.82
2023-05-21T00:24:08.680Z,4.45
2023-05-21T00:26:35.858Z,5.20
2023-05-21T00:29:03.126Z,3.72
2023-05-21T00:31:30.592Z,6.65
2023-05-21T00:33:57.717Z,4.53
2023-05-21T00:36:25.249Z,6.10
2023-05-21T00:38:52.918Z,4.35
2023-05-21T00:41:22.706Z,6.18
2023-05-21T00:43:50.218Z,4.85
2023-05-21T00:46:19.485Z,4.80
2023-05-21T00:48:47.013Z,3.85
2023-05-21T00:51:18.605Z,6.00
2023-05-21T00:53:46.648Z,5.10
2023-05-21T00:56:13.961Z,5.78
2023-05-21T00:58:41.545Z,4.32
2023-05-21T01:01:13.871Z,4.53
2023-05-21T01:03:41.485Z,4.93
2023-05-21T01:06:09.738Z,5.38
2023-05-21T01:08:40.773Z,8.70
2023-05-21T01:11:08.986Z,5.22
2023-05-21T01:13:39.922Z,4.85
2023-05-21T01:16:08.658Z,3.90
2023-05-21T01:18:37.837Z,3.97
2023-05-21T01:21:05.470Z,3.72
2023-05-21T01:23:32.733Z,8.07
2023-05-21T01:25:59.927Z,6.28
2023-05-21T01:28:27.029Z,5.68
2023-05-21T01:30:55.349Z,6.10
2023-05-21T01:33:28.766Z,4.18
2023-05-21T01:36:03.538Z,4.97
2023-05-21T01:38:34.617Z,4.70
2023-05-21T01:41:07.748Z,4.53
2023-05-21T01:43:35.795Z,5.18
2023-05-21T01:46:03.547Z,4.40
2023-05-21T01:48:31.100Z,3.95
2023-05-21T01:51:02.245Z,5.95
2023-05-21T01:53:29.314Z,5.20
2023-05-21T01:55:56.469Z,4.13
2023-05-21T01:58:24.255Z,6.82
2023-05-21T02:00:51.821Z,4.80
2023-05-21T02:03:20.385Z,6.55
2023-05-21T02:05:47.661Z,5.03
2023-05-21T02:08:15.325Z,4.80
2023-05-21T02:10:42.570Z,5.45
2023-05-21T02:13:09.736Z,4.30
2023-05-21T02:15:37.311Z,5.05
2023-05-21T02:18:04.796Z,7.47
2023-05-21T02:20:33.283Z,5.60
2023-05-21T02:23:00.450Z,5.80
2023-05-21T02:25:27.654Z,5.60
2023-05-21T02:27:56.714Z,4.97
2023-05-21T02:30:24.046Z,4.22
2023-05-21T02:32:51.223Z,3.83
2023-05-21T02:35:18.433Z,4.88
2023-05-21T02:37:45.577Z,4.75
2023-05-21T02:40:13.166Z,4.90
2023-05-21T02:42:41.427Z,3.90
2023-05-21T02:45:09.788Z,6.60
2023-05-21T02:47:38.320Z,6.10
2023-05-21T02:50:07.133Z,8.20
2023-05-21T02:52:34.262Z,5.68
2023-05-21T02:55:01.511Z,5.68
2023-05-21T02:57:28.621Z,6.25
2023-05-21T02:59:55.711Z,5.30
2023-05-21T03:02:22.961Z,4.65
2023-05-21T03:04:50.882Z,6.95
2023-05-21T03:07:19.128Z,8.20
2023-05-21T03:09:46.397Z,4.70
2023-05-21T03:12:13.757Z,6.47
2023-05-21T03:14:44.086Z,5.25
2023-05-21T03:17:14.029Z,7.45
2023-05-21T03:19:41.897Z,6.95
2023-05-21T03:22:09.454Z,7.13
2023-05-21T03:24:36.828Z,4.90
2023-05-21T03:27:06.501Z,5.00
2023-05-21T03:29:34.021Z,7.05
2023-05-21T03:32:01.823Z,4.82
2023-05-21T03:34:29.006Z,6.60
2023-05-21T03:36:56.135Z,4.70
2023-05-21T03:39:23.281Z,9.70
2023-05-21T03:41:50.465Z,5.13
2023-05-21T03:44:17.582Z,5.85
2023-05-21T03:46:45.633Z,7.40
2023-05-21T03:49:12.789Z,4.93
2023-05-21T03:51:39.887Z,6.47
2023-05-21T03:54:07.098Z,7.38
2023-05-21T03:56:34.242Z,9.85
2023-05-21T03:59:01.693Z,6.43
2023-05-21T04:01:29.069Z,5.60
2023-05-21T04:03:56.422Z,9.77
2023-05-21T04:06:23.634Z,6.78
2023-05-21T04:08:51.358Z,10.60
2023-05-21T04:11:18.517Z,6.88
2023-05-21T04:13:46.216Z,6.38
2023-05-21T04:16:14.827Z,4.10
2023-05-21T04:18:44.202Z,5.20
2023-05-21T04:21:12.758Z,4.63
2023-05-21T04:23:40.130Z,5.82
2023-05-21T04:26:07.852Z,9.52
2023-05-21T04:28:35.396Z,6.43
2023-05-21T04:31:02.916Z,9.18
2023-05-21T04:33:30.455Z,8.43
2023-05-21T04:35:57.770Z,5.60
2023-05-21T04:38:25.858Z,8.45
2023-05-21T04:40:53.118Z,5.68
2023-05-21T04:43:26.137Z,5.10
2023-05-21T04:45:54.914Z,9.35
2023-05-21T04:48:27.068Z,5.85
2023-05-21T04:50:55.850Z,9.80
2023-05-21T04:53:23.568Z,5.95
2023-05-21T04:55:50.706Z,6.78
2023-05-21T04:58:19.013Z,7.85
2023-05-21T05:00:47.032Z,6.10
2023-05-21T05:03:14.709Z,7.03
2023-05-21T05:05:42.123Z,4.95
2023-05-21T05:08:09.211Z,6.53
2023-05-21T05:10:36.553Z,6.03
2023-05-21T05:13:03.974Z,4.57
2023-05-21T05:15:31.139Z,4.15
2023-05-21T05:17:58.411Z,7.25
2023-05-21T05:20:25.606Z,6.88
2023-05-21T05:22:52.708Z,4.82
2023-05-21T05:25:20.000Z,5.50
2023-05-21T05:27:47.261Z,5.95
2023-05-21T05:30:14.512Z,5.65
2023-05-21T05:32:41.639Z,4.95
2023-05-21T05:35:09.162Z,6.10
2023-05-21T05:37:36.336Z,5.93
2023-05-21T05:40:04.359Z,5.50
2023-05-21T05:42:31.666Z,7.22
2023-05-21T05:44:58.780Z,5.38
2023-05-21T05:47:26.317Z,5.40
2023-05-21T05:49:53.497Z,5.03
2023-05-21T05:52:20.769Z,4.53
2023-05-21T05:54:47.865Z,5.10
2023-05-21T05:57:15.028Z,6.13
2023-05-21T05:59:42.175Z,5.72
2023-05-21T06:02:09.323Z,4.70
2023-05-21T06:04:36.439Z,4.80
2023-05-21T06:07:03.529Z,5.95
2023-05-21T06:09:30.640Z,5.53
2023-05-21T06:11:57.795Z,5.93
2023-05-21T06:14:24.880Z,4.50
2023-05-21T06:16:52.008Z,4.93
2023-05-21T06:19:19.238Z,6.82
2023-05-21T06:21:46.465Z,7.20
2023-05-21T06:24:13.575Z,4.95
2023-05-21T06:26:40.794Z,4.88
2023-05-21T06:29:07.961Z,4.53
2023-05-21T06:31:35.177Z,3.60
2023-05-21T06:34:02.521Z,3.88
2023-05-21T06:36:30.139Z,4.22
2023-05-21T06:38:57.516Z,7.40
2023-05-21T06:41:24.713Z,5.20
2023-05-21T06:43:51.843Z,6.07
2023-05-21T06:46:19.040Z,7.28
2023-05-21T06:48:46.461Z,4.85
2023-05-21T06:51:13.734Z,5.80
2023-05-21T06:53:40.936Z,7.80
2023-05-21T06:56:08.241Z,4.75
2023-05-21T06:58:35.641Z,3.08
2023-05-21T07:01:02.940Z,7.32
2023-05-21T07:03:30.255Z,4.97
2023-05-21T07:06:00.448Z,5.75
2023-05-21T07:08:27.714Z,9.02
2023-05-21T07:10:56.338Z,4.00
2023-05-21T07:13:23.475Z,6.10
2023-05-21T07:15:50.865Z,4.00
2023-05-21T07:18:17.972Z,5.63
2023-05-21T07:20:45.143Z,7.00
2023-05-21T07:23:12.319Z,6.93
2023-05-21T07:25:39.492Z,4.97
2023-05-21T07:28:06.896Z,5.65
2023-05-21T07:30:34.092Z,5.07
2023-05-21T07:33:01.268Z,4.63
2023-05-21T07:35:29.054Z,4.28
2023-05-21T07:37:56.262Z,5.75
2023-05-21T07:40:23.397Z,4.45
2023-05-21T07:42:50.692Z,4.18
2023-05-21T07:45:17.841Z,4.10
2023-05-21T07:47:46.805Z,5.30
2023-05-21T07:50:14.709Z,4.72
2023-05-21T07:52:42.106Z,4.55
2023-05-21T07:55:10.271Z,6.05
2023-05-21T07:57:37.484Z,4.25
2023-05-21T08:00:08.009Z,4.55
2023-05-21T08:02:35.286Z,5.47
2023-05-21T08:05:02.532Z,4.00
2023-05-21T08:07:29.829Z,5.13
2023-05-21T08:09:56.961Z,3.67
2023-05-21T08:12:24.066Z,3.92
2023-05-21T08:14:51.164Z,4.10
2023-05-21T08:17:18.377Z,8.60
2023-05-21T08:19:45.582Z,3.40
2023-05-21T08:22:12.736Z,4.45
2023-05-21T08:24:41.034Z,3.05
2023-05-21T08:27:08.228Z,4.60
2023-05-21T08:29:35.518Z,2.85
2023-05-21T08:32:02.678Z,3.03
2023-05-21T08:34:29.872Z,2.80
2023-05-21T08:36:57.005Z,3.42
2023-05-21T08:39:24.168Z,6.03
2023-05-21T08:41:52.567Z,3.60
2023-05-21T08:44:24.006Z,7.45
2023-05-21T08:46:51.897Z,5.30
2023-05-21T08:49:23.214Z,7.07
2023-05-21T08:51:51.975Z,4.43
2023-05-21T08:54:19.070Z,6.13
2023-05-21T08:56:49.425Z,6.88
2023-05-21T08:59:17.745Z,4.05
2023-05-21T09:01:46.200Z,5.57
2023-05-21T09:04:21.346Z,4.05
2023-05-21T09:06:49.264Z,6.47
2023-05-21T09:09:28.593Z,3.40
2023-05-21T09:11:55.720Z,4.53
2023-05-21T09:14:23.966Z,4.82
2023-05-21T09:16:51.415Z,5.18
2023-05-21T09:19:21.903Z,9.45
2023-05-21T09:21:51.642Z,4.13
2023-05-21T09:24:18.838Z,4.15
2023-05-21T09:26:46.038Z,5.20
2023-05-21T09:29:13.679Z,6.40
2023-05-21T09:31:44.984Z,4.18
2023-05-21T09:34:13.949Z,4.85
2023-05-21T09:36:41.097Z,4.80
2023-05-21T09:39:08.744Z,4.82
2023-05-21T09:41:36.918Z,3.95
2023-05-21T09:44:04.264Z,5.07
2023-05-21T09:46:41.585Z,5.20
2023-05-21T09:49:22.722Z,6.20
2023-05-21T09:51:49.879Z,4.57
2023-05-21T09:54:17.027Z,4.60
2023-05-21T09:56:44.241Z,3.78
2023-05-21T09:59:11.486Z,3.88
2023-05-21T10:01:39.111Z,4.65
2023-05-21T10:04:09.807Z,4.90
2023-05-21T10:06:41.327Z,4.68
2023-05-21T10:09:10.595Z,6.50
2023-05-21T10:11:37.997Z,4.97
2023-05-21T10:14:07.352Z,4.30
2023-05-21T10:16:35.830Z,6.15
2023-05-21T10:19:04.344Z,5.15
2023-05-21T10:21:35.718Z,5.85
2023-05-21T10:26:30.847Z,5.78
2023-05-21T10:29:00.329Z,5.18
2023-05-21T10:31:28.482Z,5.72
2023-05-21T10:33:56.092Z,7.78
2023-05-21T10:36:25.793Z,6.60
2023-05-21T10:38:52.892Z,7.07
2023-05-21T10:41:21.010Z,6.50
2023-05-21T10:44:00.873Z,8.85
2023-05-21T10:46:27.974Z,5.90
2023-05-21T10:48:55.019Z,6.30
2023-05-21T10:51:50.064Z,8.05
2023-05-21T10:54:35.859Z,7.18
2023-05-21T10:57:21.967Z,6.50
2023-05-21T10:59:49.311Z,12.35
2023-05-21T11:02:17.187Z,8.02
2023-05-21T11:04:45.649Z,6.78
2023-05-21T11:07:13.644Z,6.32
2023-05-21T11:09:40.826Z,7.78
2023-05-21T11:12:09.794Z,9.00
2023-05-21T11:14:40.947Z,9.48
2023-05-21T11:17:08.026Z,8.55
2023-05-21T11:19:36.859Z,8.32
2023-05-21T11:22:11.501Z,8.50
2023-05-21T11:24:39.697Z,9.63
2023-05-21T11:27:07.096Z,9.35
2023-05-21T11:29:41.060Z,11.95
2023-05-21T11:32:12.027Z,9.18
2023-05-21T11:34:43.542Z,9.10
2023-05-21T11:37:17.182Z,8.20
2023-05-21T11:39:48.384Z,9.55
2023-05-21T11:42:28.593Z,7.60
2023-05-21T11:44:58.415Z,9.43
2023-05-21T11:47:28.665Z,9.40
2023-05-21T11:49:57.000Z,9.00
2023-05-21T11:52:25.228Z,8.25
2023-05-21T11:54:55.426Z,8.52
2023-05-21T11:57:22.871Z,9.63
2023-05-21T11:59:53.642Z,11.48
2023-05-21T12:02:21.857Z,9.10
2023-05-21T12:04:50.200Z,9.77
2023-05-21T12:07:18.917Z,13.55
2023-05-21T12:09:47.208Z,8.25
2023-05-21T12:12:18.620Z,7.70
2023-05-21T12:14:46.464Z,8.73
2023-05-21T12:17:13.741Z,8.98
2023-05-21T12:19:41.606Z,7.13
2023-05-21T12:22:08.845Z,13.20
2023-05-21T12:24:36.668Z,9.05
2023-05-21T12:27:09.432Z,10.32
2023-05-21T12:29:40.429Z,8.32
2023-05-21T12:32:09.213Z,10.00
2023-05-21T12:34:46.019Z,8.90
2023-05-21T12:37:15.694Z,9.30
2023-05-21T12:39:46.603Z,9.05
2023-05-21T12:42:14.122Z,11.32
2023-05-21T12:44:44.159Z,9.38
2023-05-21T12:47:11.717Z,9.73
2023-05-21T12:49:42.935Z,8.35
2023-05-21T12:52:11.011Z,8.27
2023-05-21T12:54:39.610Z,9.48
2023-05-21T12:57:07.470Z,13.05
2023-05-21T12:59:45.459Z,10.88
2023-05-21T13:02:16.155Z,8.90
2023-05-21T13:04:43.421Z,7.90
2023-05-21T13:07:10.589Z,12.07
2023-05-21T13:09:37.754Z,8.45
2023-05-21T13:12:05.058Z,11.48
2023-05-21T13:14:32.242Z,8.52
2023-05-21T13:16:59.500Z,9.38
2023-05-21T13:19:26.793Z,9.93
2023-05-21T13:21:54.013Z,11.95
2023-05-21T13:24:21.225Z,13.63
2023-05-21T13:26:48.393Z,9.70
2023-05-21T13:29:15.598Z,10.80
2023-05-21T13:31:43.717Z,10.38
2023-05-21T13:34:11.739Z,11.30
2023-05-21T13:36:39.099Z,10.82
2023-05-21T13:39:06.392Z,10.18
2023-05-21T13:41:33.746Z,14.52
2023-05-21T13:44:00.848Z,12.30
2023-05-21T13:46:28.058Z,10.15
2023-05-21T13:48:55.219Z,13.57
2023-05-21T13:51:37.517Z,11.20
2023-05-21T13:54:05.656Z,13.05
2023-05-21T13:56:33.836Z,12.77
2023-05-21T13:59:01.758Z,11.95
2023-05-21T14:01:29.013Z,14.43
2023-05-21T14:03:57.676Z,15.57
2023-05-21T14:06:24.840Z,13.57
2023-05-21T14:08:51.920Z,11.98
2023-05-21T14:11:19.055Z,11.68
2023-05-21T14:13:46.212Z,11.63
2023-05-21T14:16:13.431Z,12.50
2023-05-21T14:18:40.813Z,12.57
2023-05-21T14:21:08.013Z,10.32
2023-05-21T14:23:35.249Z,14.18
2023-05-21T14:26:02.391Z,11.63
2023-05-21T14:28:29.464Z,12.48
2023-05-21T14:30:56.597Z,12.88
2023-05-21T14:33:23.686Z,17.92
2023-05-21T14:35:50.882Z,11.90
2023-05-21T14:38:18.059Z,12.20
2023-05-21T14:40:45.224Z,13.80
2023-05-21T14:43:12.379Z,12.57
2023-05-21T14:45:39.708Z,13.02
2023-05-21T14:48:08.829Z,15.30
2023-05-21T14:50:36.258Z,11.63
2023-05-21T14:53:10.632Z,12.98
2023-05-21T14:55:38.777Z,16.20
2023-05-21T14:58:06.480Z,13.32
2023-05-21T15:00:34.034Z,12.63
2023-05-21T15:03:01.251Z,12.20
2023-05-21T15:05:29.462Z,15.15
2023-05-21T15:07:56.979Z,11.60
2023-05-21T15:10:25.066Z,13.80
2023-05-21T15:12:52.182Z,11.70
2023-05-21T15:15:22.893Z,13.65
2023-05-21T15:17:50.833Z,15.23
2023-05-21T15:20:19.667Z,14.68
2023-05-21T15:22:48.058Z,12.73
2023-05-21T15:25:15.206Z,12.00
2023-05-21T15:27:42.310Z,12.75
2023-05-21T15:30:09.534Z,12.35
2023-05-21T15:32:39.174Z,11.98
2023-05-21T15:35:06.600Z,13.43
2023-05-21T15:37:34.280Z,12.75
2023-05-21T15:40:01.951Z,13.88
2023-05-21T15:42:31.363Z,10.77
2023-05-21T15:44:58.530Z,12.13
2023-05-21T15:47:26.013Z,9.38
2023-05-21T15:49:53.157Z,10.75
2023-05-21T15:52:20.408Z,10.15
2023-05-21T15:54:47.684Z,10.90
2023-05-21T15:57:14.857Z,11.45
2023-05-21T15:59:41.998Z,9.50
2023-05-21T16:02:09.726Z,11.30
2023-05-21T16:04:37.191Z,13.50
2023-05-21T16:07:04.521Z,11.80
2023-05-21T16:09:31.718Z,24.92
2023-05-21T16:11:58.825Z,9.43
2023-05-21T16:14:25.976Z,13.40
2023-05-21T16:16:53.214Z,27.45
2023-05-21T16:19:20.546Z,17.98
2023-05-21T16:21:47.768Z,11.45
2023-05-21T16:24:14.986Z,18.70
2023-05-21T16:26:42.206Z,15.63
2023-05-21T16:29:09.386Z,13.25
2023-05-21T16:31:37.773Z,12.15
2023-05-21T16:34:05.024Z,12.35
2023-05-21T16:36:32.163Z,10.82
2023-05-21T16:38:59.308Z,15.50
2023-05-21T16:41:27.111Z,11.02
2023-05-21T16:43:54.420Z,12.43
2023-05-21T16:46:21.654Z,9.20
2023-05-21T16:48:48.774Z,9.00
2023-05-21T16:51:15.936Z,12.20
2023-05-21T16:53:43.375Z,13.15
2023-05-21T16:56:10.728Z,14.48
2023-05-21T16:58:38.032Z,10.73
2023-05-21T17:01:05.334Z,10.98
2023-05-21T17:03:32.588Z,13.77
2023-05-21T17:06:00.184Z,12.52
2023-05-21T17:08:27.482Z,10.13
2023-05-21T17:10:55.527Z,11.35
2023-05-21T17:13:23.382Z,12.10
2023-05-21T17:15:53.964Z,14.60
2023-05-21T17:18:21.206Z,11.90
2023-05-21T17:20:48.413Z,11.68
2023-05-21T17:23:15.711Z,9.82
2023-05-21T17:25:42.929Z,12.38
2023-05-21T17:28:11.176Z,12.15
2023-05-21T17:30:38.411Z,11.77
2023-05-21T17:33:06.575Z,13.65
2023-05-21T17:35:34.313Z,11.75
2023-05-21T17:38:01.709Z,13.02
2023-05-21T17:40:28.860Z,12.18
2023-05-21T17:42:56.216Z,14.85
2023-05-21T17:45:23.364Z,12.45
2023-05-21T17:47:50.701Z,14.60
2023-05-21T17:50:18.006Z,11.90
2023-05-21T17:52:45.157Z,14.00
2023-05-21T17:55:12.313Z,12.05
2023-05-21T17:57:39.469Z,11.50
2023-05-21T18:00:07.034Z,12.00
2023-05-21T18:02:34.298Z,14.70
2023-05-21T18:05:01.530Z,18.60
2023-05-21T18:07:28.628Z,10.80
2023-05-21T18:09:55.863Z,13.48
2023-05-21T18:12:23.003Z,16.48
2023-05-21T18:14:50.089Z,12.82
2023-05-21T18:17:17.262Z,13.70
2023-05-21T18:19:44.441Z,14.70
2023-05-21T18:22:11.698Z,12.07
2023-05-21T18:24:39.573Z,13.80
2023-05-21T18:27:06.789Z,12.35
2023-05-21T18:29:33.973Z,13.20
2023-05-21T18:32:01.230Z,12.65
2023-05-21T18:34:28.502Z,15.48
2023-05-21T18:36:58.582Z,12.93
2023-05-21T18:39:27.680Z,14.00
2023-05-21T18:42:08.864Z,13.45
2023-05-21T18:44:39.803Z,14.63
2023-05-21T18:47:07.751Z,14.13
2023-05-21T18:49:36.128Z,13.93
2023-05-21T18:52:03.885Z,15.43
2023-05-21T18:54:31.255Z,16.13
2023-05-21T18:57:00.345Z,16.17
2023-05-21T18:59:27.821Z,16.48
2023-05-21T19:01:55.120Z,14.80
2023-05-21T19:04:22.468Z,19.75
2023-05-21T19:06:49.589Z,15.05
2023-05-21T19:09:16.845Z,19.33
2023-05-21T19:11:44.087Z,14.93
2023-05-21T19:14:11.283Z,14.90
2023-05-21T19:16:38.534Z,13.40
2023-05-21T19:19:06.115Z,14.27
2023-05-21T19:21:35.284Z,17.13
2023-05-21T19:24:04.808Z,13.98
2023-05-21T19:26:32.846Z,16.80
2023-05-21T19:28:59.975Z,20.08
2023-05-21T19:31:27.327Z,13.98
2023-05-21T19:33:54.524Z,17.52
2023-05-21T19:36:22.340Z,19.55
2023-05-21T19:38:50.614Z,15.50
2023-05-21T19:41:18.499Z,19.80
2023-05-21T19:43:45.978Z,14.82
2023-05-21T19:46:13.363Z,16.55
2023-05-21T19:48:41.029Z,17.90
2023-05-21T19:51:08.165Z,15.68
2023-05-21T19:53:35.906Z,14.05
2023-05-21T19:56:03.046Z,17.10
2023-05-21T19:58:30.473Z,15.27
2023-05-21T20:01:00.558Z,17.40
2023-05-21T20:03:28.752Z,15.98
2023-05-21T20:05:55.967Z,16.92
2023-05-21T20:08:23.224Z,18.08
2023-05-21T20:10:52.007Z,16.40
2023-05-21T20:13:19.526Z,19.60
2023-05-21T20:15:48.079Z,18.25
2023-05-21T20:18:15.584Z,13.65
2023-05-21T20:20:42.993Z,22.23
2023-05-21T20:23:10.149Z,17.42
2023-05-21T20:25:37.337Z,19.15
2023-05-21T20:28:05.353Z,15.63
2023-05-21T20:30:33.540Z,15.88
2023-05-21T20:33:03.886Z,19.63
2023-05-21T20:35:31.215Z,18.50
2023-05-21T20:37:58.361Z,21.27
2023-05-21T20:40:25.526Z,17.38
2023-05-21T20:42:54.142Z,18.85
2023-05-21T20:45:21.986Z,17.95
2023-05-21T20:47:49.955Z,21.38
2023-05-21T20:50:17.832Z,16.85
2023-05-21T20:52:47.326Z,18.00
2023-05-21T20:55:14.906Z,19.45
2023-05-21T20:57:42.380Z,18.40
2023-05-21T21:00:13.367Z,22.45
2023-05-21T21:02:40.625Z,18.80
2023-05-21T21:05:10.782Z,16.30
2023-05-21T21:07:38.165Z,19.45
2023-05-21T21:10:05.519Z,17.00
2023-05-21T21:12:32.684Z,19.25
2023-05-21T21:14:59.820Z,22.25
2023-05-21T21:17:26.931Z,21.15
2023-05-21T21:19:54.062Z,17.90
2023-05-21T21:22:21.480Z,21.25
2023-05-21T21:24:48.827Z,21.10
2023-05-21T21:27:15.971Z,22.15
2023-05-21T21:29:43.174Z,22.23
2023-05-21T21:32:10.457Z,20.52
2023-05-21T21:34:37.581Z,22.75
2023-05-21T21:37:04.950Z,20.25
2023-05-21T21:39:32.048Z,21.05
2023-05-21T21:41:59.333Z,21.13
2023-05-21T21:44:26.493Z,19.77
2023-05-21T21:46:53.648Z,18.55
2023-05-21T21:49:20.798Z,18.33
2023-05-21T21:51:48.368Z,23.90
2023-05-21T21:54:15.535Z,21.80
2023-05-21T21:56:42.706Z,20.15
2023-05-21T21:59:09.808Z,23.58
2023-05-21T22:01:37.292Z,25.30
2023-05-21T22:04:04.560Z,23.33
2023-05-21T22:06:31.833Z,24.75
2023-05-21T22:08:59.103Z,19.90
2023-05-21T22:11:28.392Z,21.05
2023-05-21T22:13:56.127Z,24.55
2023-05-21T22:16:24.936Z,25.17
2023-05-21T22:18:54.013Z,24.83
2023-05-21T22:21:21.763Z,23.45
2023-05-21T22:23:48.873Z,21.50
2023-05-21T22:26:15.945Z,28.33
2023-05-21T22:28:43.077Z,25.40
2023-05-21T22:31:10.211Z,26.73
2023-05-21T22:33:37.402Z,26.20
2023-05-21T22:36:04.588Z,25.10
2023-05-21T22:38:31.705Z,26.25
2023-05-21T22:40:58.812Z,36.80
2023-05-21T22:43:26.953Z,22.95
2023-05-21T22:45:54.089Z,29.00
2023-05-21T22:48:22.003Z,23.30
2023-05-21T22:50:50.315Z,23.15
2023-05-21T22:53:17.920Z,20.90
2023-05-21T22:55:45.081Z,21.50
2023-05-21T22:58:12.163Z,21.30
2023-05-21T23:00:39.490Z,27.25
2023-05-21T23:03:06.822Z,21.15
2023-05-21T23:05:34.161Z,22.13
2023-05-21T23:08:01.422Z,25.08
2023-05-21T23:10:28.634Z,18.42
2023-05-21T23:12:55.820Z,18.60
2023-05-21T23:15:24.338Z,12.07
2023-05-21T23:17:51.590Z,12.70
2023-05-21T23:20:18.714Z,19.65
2023-05-21T23:22:45.882Z,18.80
2023-05-21T23:25:12.957Z,18.40
2023-05-21T23:27:40.144Z,13.70
2023-05-21T23:30:07.921Z,15.20
2023-05-21T23:32:35.093Z,13.98
2023-05-21T23:35:02.249Z,15.50
2023-05-21T23:37:29.438Z,13.43
2023-05-21T23:39:56.593Z,14.68
2023-05-21T23:42:23.896Z,13.52
2023-05-21T23:44:50.949Z,14.40
2023-05-21T23:47:18.091Z,16.63
2023-05-21T23:49:45.294Z,13.13
2023-05-21T23:52:13.460Z,17.45
2023-05-21T23:54:41.518Z,17.10
2023-05-21T23:57:08.671Z,16.52
2023-05-21T23:59:35.743Z,17.45
